createdAt,value
2018-06-03T00:01:55.815Z,94.80
2018-06-03T00:04:24.017Z,99.27
2018-06-03T00:06:51.503Z,95.73
2018-06-03T00:09:18.947Z,100.93
2018-06-03T00:11:46.403Z,103.10
2018-06-03T00:14:13.879Z,91.80
2018-06-03T00:16:41.440Z,89.57
2018-06-03T00:19:08.887Z,100.33
2018-06-03T00:21:42.962Z,100.93
2018-06-03T00:24:11.179Z,106.30
2018-06-03T00:26:38.647Z,98.40
2018-06-03T00:29:06.085Z,104.07
2018-06-03T00:31:33.527Z,108.80
2018-06-03T00:34:01.015Z,100.63
2018-06-03T00:36:40.347Z,100.40
2018-06-03T00:39:07.804Z,110.37
2018-06-03T00:41:35.259Z,110.30
2018-06-03T00:44:02.701Z,96.07
2018-06-03T00:46:30.150Z,101.70
2018-06-03T00:48:57.605Z,100.00
2018-06-03T00:51:25.047Z,101.97
2018-06-03T00:53:52.491Z,102.30
2018-06-03T00:56:31.818Z,114.30
2018-06-03T00:58:59.258Z,114.30
2018-06-03T01:01:26.697Z,113.03
2018-06-03T01:03:54.139Z,113.60
2018-06-03T01:06:22.487Z,101.63
2018-06-03T01:08:49.907Z,98.67
2018-06-03T01:11:17.374Z,116.33
2018-06-03T01:13:44.856Z,111.07
2018-06-03T01:16:12.403Z,112.07
2018-06-03T01:18:39.960Z,112.77
2018-06-03T01:21:07.505Z,107.93
2018-06-03T01:23:34.933Z,105.30
2018-06-03T01:26:03.142Z,99.70
2018-06-03T01:28:30.599Z,109.37
2018-06-03T01:30:58.054Z,117.63
2018-06-03T01:33:25.522Z,115.37
2018-06-03T01:35:52.964Z,121.62
2018-06-03T01:38:20.443Z,119.97
2018-06-03T01:40:47.885Z,114.57
2018-06-03T01:43:15.338Z,116.10
2018-06-03T01:45:42.814Z,110.83
2018-06-03T01:48:10.363Z,129.50
2018-06-03T01:50:37.809Z,121.93
2018-06-03T01:53:05.279Z,110.50
2018-06-03T01:55:32.734Z,119.60
2018-06-03T01:58:00.191Z,113.90
2018-06-03T02:00:27.646Z,109.00
2018-06-03T02:02:55.139Z,113.30
2018-06-03T02:05:22.567Z,110.53
2018-06-03T02:07:50.128Z,127.07
2018-06-03T02:10:17.567Z,120.93
2018-06-03T02:12:45.012Z,116.73
2018-06-03T02:15:12.461Z,117.37
2018-06-03T02:17:39.907Z,113.07
2018-06-03T02:20:07.395Z,120.60
2018-06-03T02:22:34.840Z,117.03
2018-06-03T02:25:02.401Z,129.83
2018-06-03T02:27:29.834Z,120.73
2018-06-03T02:29:58.150Z,121.70
2018-06-03T02:32:25.642Z,123.97
2018-06-03T02:34:53.151Z,127.47
2018-06-03T02:37:50.135Z,122.50
2018-06-03T02:40:18.344Z,120.87
2018-06-03T02:42:46.471Z,114.43
2018-06-03T02:45:14.569Z,129.80
2018-06-03T02:47:42.639Z,131.77
2018-06-03T02:50:10.743Z,112.70
2018-06-03T02:52:38.835Z,121.23
2018-06-03T02:55:06.924Z,126.63
2018-06-03T02:57:34.994Z,128.03
2018-06-03T03:00:03.134Z,117.83
2018-06-03T03:02:31.230Z,119.07
2018-06-03T03:04:59.314Z,132.63
2018-06-03T03:07:27.435Z,126.00
2018-06-03T03:09:55.536Z,127.30
2018-06-03T03:12:23.395Z,136.00
2018-06-03T03:14:51.484Z,126.97
2018-06-03T03:17:19.612Z,119.17
2018-06-03T03:19:47.756Z,122.17
2018-06-03T03:22:15.851Z,106.23
2018-06-03T03:24:43.927Z,110.93
2018-06-03T03:27:12.023Z,120.27
2018-06-03T03:29:40.137Z,114.13
2018-06-03T03:32:08.241Z,120.57
2018-06-03T03:34:36.364Z,128.72
2018-06-03T03:37:04.468Z,123.37
2018-06-03T03:39:32.544Z,110.97
2018-06-03T03:42:00.628Z,112.13
2018-06-03T03:44:28.703Z,115.70
2018-06-03T03:46:56.825Z,116.13
2018-06-03T03:49:24.931Z,119.20
2018-06-03T03:51:53.004Z,116.87
2018-06-03T03:54:21.074Z,105.73
2018-06-03T03:56:49.159Z,120.13
2018-06-03T03:59:17.231Z,128.60
2018-06-03T04:01:45.327Z,119.73
2018-06-03T04:04:13.424Z,109.30
2018-06-03T04:06:41.538Z,117.03
2018-06-03T04:09:09.627Z,113.10
2018-06-03T04:11:37.636Z,115.97
2018-06-03T04:14:05.751Z,115.47
2018-06-03T04:16:33.839Z,105.73
2018-06-03T04:19:01.981Z,101.77
2018-06-03T04:21:30.071Z,110.87
2018-06-03T04:23:58.142Z,112.70
2018-06-03T04:26:26.249Z,109.97
2018-06-03T04:28:54.363Z,101.90
2018-06-03T04:31:22.434Z,105.97
2018-06-03T04:33:50.395Z,108.10
2018-06-03T04:36:18.477Z,95.37
2018-06-03T04:38:46.565Z,107.63
2018-06-03T04:41:14.718Z,99.83
2018-06-03T04:43:42.772Z,95.30
2018-06-03T04:46:10.861Z,97.23
2018-06-03T04:48:38.958Z,98.57
2018-06-03T04:51:07.044Z,94.03
2018-06-03T04:53:35.102Z,83.63
2018-06-03T04:56:03.256Z,84.07
2018-06-03T04:58:31.346Z,78.47
2018-06-03T05:00:59.454Z,83.60
2018-06-03T05:03:27.539Z,76.47
2018-06-03T05:05:55.616Z,78.10
2018-06-03T05:08:23.688Z,78.90
2018-06-03T05:10:51.787Z,70.13
2018-06-03T05:13:19.874Z,70.90
2018-06-03T05:15:47.988Z,64.50
2018-06-03T05:18:16.062Z,64.70
2018-06-03T05:20:44.139Z,60.67
2018-06-03T05:23:12.261Z,56.63
2018-06-03T05:25:40.462Z,56.63
2018-06-03T05:28:08.635Z,58.67
2018-06-03T05:30:36.771Z,54.73
2018-06-03T05:33:04.903Z,50.17
2018-06-03T05:35:39.737Z,50.97
2018-06-03T05:38:07.884Z,50.40
2018-06-03T05:40:35.934Z,49.93
2018-06-03T05:43:04.143Z,45.43
2018-06-03T05:45:32.214Z,43.10
2018-06-03T05:48:00.322Z,41.70
2018-06-03T05:50:28.396Z,43.60
2018-06-03T05:52:56.291Z,42.13
2018-06-03T05:55:24.381Z,46.33
2018-06-03T05:57:52.443Z,44.30
2018-06-03T06:00:20.525Z,42.53
2018-06-03T06:02:48.615Z,40.63
2018-06-03T06:05:16.687Z,41.47
2018-06-03T06:07:44.771Z,44.20
2018-06-03T06:10:12.873Z,44.47
2018-06-03T06:12:40.979Z,44.40
2018-06-03T06:15:09.043Z,41.93
2018-06-03T06:17:37.135Z,35.30
2018-06-03T06:20:06.033Z,40.90
2018-06-03T06:22:34.187Z,43.97
2018-06-03T06:25:02.329Z,42.80
2018-06-03T06:27:30.451Z,37.07
2018-06-03T06:29:58.544Z,39.83
2018-06-03T06:32:26.659Z,37.38
2018-06-03T06:34:54.800Z,38.57
2018-06-03T06:37:22.895Z,35.43
2018-06-03T06:39:50.994Z,38.60
2018-06-03T06:42:19.124Z,34.20
2018-06-03T06:44:47.252Z,41.93
2018-06-03T06:47:15.331Z,32.43
2018-06-03T06:49:43.395Z,35.90
2018-06-03T06:52:11.542Z,32.43
2018-06-03T06:54:39.667Z,32.27
2018-06-03T06:57:07.751Z,30.17
2018-06-03T06:59:35.851Z,30.83
2018-06-03T07:02:04.041Z,30.30
2018-06-03T07:04:32.129Z,30.63
2018-06-03T07:07:00.214Z,29.50
2018-06-03T07:09:28.295Z,33.60
2018-06-03T07:11:56.411Z,32.83
2018-06-03T07:14:24.566Z,32.33
2018-06-03T07:16:52.606Z,33.60
2018-06-03T07:19:20.514Z,32.03
2018-06-03T07:21:48.670Z,38.60
2018-06-03T07:24:16.814Z,39.30
2018-06-03T07:26:45.043Z,44.27
2018-06-03T07:29:13.164Z,39.67
2018-06-03T07:31:41.235Z,43.50
2018-06-03T07:34:09.319Z,44.77
2018-06-03T07:36:37.398Z,41.45
2018-06-03T07:39:06.711Z,43.45
2018-06-03T07:41:34.823Z,45.70
2018-06-03T07:44:03.471Z,41.95
2018-06-03T07:46:31.575Z,54.90
2018-06-03T07:48:59.687Z,48.87
2018-06-03T07:51:27.822Z,52.62
2018-06-03T07:53:55.894Z,52.73
2018-06-03T07:56:23.958Z,55.65
2018-06-03T07:58:52.083Z,54.75
2018-06-03T08:01:20.186Z,49.18
2018-06-03T08:03:48.256Z,53.73
2018-06-03T08:06:16.355Z,51.98
2018-06-03T08:08:44.442Z,56.15
2018-06-03T08:11:12.542Z,53.35
2018-06-03T08:13:40.691Z,53.50
2018-06-03T08:16:08.940Z,53.73
2018-06-03T08:18:37.080Z,51.77
2018-06-03T08:21:05.186Z,45.43
2018-06-03T08:23:33.446Z,51.20
2018-06-03T08:26:01.520Z,45.15
2018-06-03T08:28:29.622Z,51.00
2018-06-03T08:30:57.731Z,50.23
2018-06-03T08:33:25.834Z,46.90
2018-06-03T08:35:53.956Z,55.70
2018-06-03T08:38:22.048Z,50.95
2018-06-03T08:40:50.126Z,47.80
2018-06-03T08:43:18.327Z,47.00
2018-06-03T08:45:46.451Z,46.58
2018-06-03T08:48:14.520Z,46.05
2018-06-03T08:50:42.601Z,49.77
2018-06-03T08:53:10.753Z,45.03
2018-06-03T08:55:38.880Z,45.12
2018-06-03T08:58:07.060Z,42.10
2018-06-03T09:00:35.117Z,41.55
2018-06-03T09:03:03.206Z,34.88
2018-06-03T09:05:31.298Z,31.10
2018-06-03T09:07:59.367Z,33.60
2018-06-03T09:10:27.467Z,34.63
2018-06-03T09:12:55.646Z,31.40
2018-06-03T09:15:23.765Z,24.43
2018-06-03T09:17:52.045Z,24.72
2018-06-03T09:20:20.196Z,30.40
2018-06-03T09:22:48.301Z,31.23
2018-06-03T09:25:16.399Z,28.20
2018-06-03T09:27:44.545Z,38.38
2018-06-03T09:30:12.637Z,38.25
2018-06-03T09:32:40.801Z,25.03
2018-06-03T09:35:08.875Z,26.73
2018-06-03T09:37:37.034Z,31.85
2018-06-03T09:40:05.239Z,33.48
2018-06-03T09:42:33.332Z,29.95
2018-06-03T09:45:01.451Z,27.45
2018-06-03T09:47:29.553Z,34.38
2018-06-03T09:49:57.846Z,27.22
2018-06-03T09:52:25.918Z,24.95
2018-06-03T09:54:54.043Z,25.30
2018-06-03T09:57:22.123Z,27.20
2018-06-03T09:59:50.210Z,31.10
2018-06-03T10:02:18.767Z,29.72
2018-06-03T10:04:46.857Z,30.65
2018-06-03T10:07:14.925Z,30.00
2018-06-03T10:09:43.016Z,31.80
2018-06-03T10:12:11.156Z,30.37
2018-06-03T10:14:39.280Z,25.43
2018-06-03T10:17:07.383Z,25.08
2018-06-03T10:19:35.463Z,24.60
2018-06-03T10:22:03.565Z,22.40
2018-06-03T10:24:31.644Z,21.00
2018-06-03T10:27:00.081Z,23.12
2018-06-03T10:29:28.185Z,24.85
2018-06-03T10:31:56.329Z,24.35
2018-06-03T10:34:24.403Z,20.17
2018-06-03T10:36:52.486Z,20.17
2018-06-03T10:39:20.582Z,21.27
2018-06-03T10:41:48.723Z,18.32
2018-06-03T10:44:16.827Z,18.23
2018-06-03T10:46:44.879Z,15.85
2018-06-03T10:49:13.004Z,16.05
2018-06-03T10:51:41.103Z,19.55
2018-06-03T10:54:09.234Z,17.90
2018-06-03T10:56:37.327Z,17.42
2018-06-03T10:59:05.487Z,17.62
2018-06-03T11:01:33.606Z,16.27
2018-06-03T11:04:01.703Z,18.23
2018-06-03T11:06:29.956Z,16.52
2018-06-03T11:08:58.047Z,17.00
2018-06-03T11:11:26.267Z,16.05
2018-06-03T11:13:54.350Z,14.33
2018-06-03T11:16:22.574Z,13.50
2018-06-03T11:18:50.870Z,17.10
2018-06-03T11:21:19.066Z,21.10
2018-06-03T11:23:47.155Z,20.68
2018-06-03T11:26:15.316Z,16.35
2018-06-03T11:28:43.375Z,18.90
2018-06-03T11:31:11.517Z,16.70
2018-06-03T11:33:39.597Z,16.70
2018-06-03T11:36:08.443Z,15.38
2018-06-03T11:38:36.503Z,16.93
2018-06-03T11:41:04.583Z,16.10
2018-06-03T11:43:32.715Z,15.98
2018-06-03T11:46:00.783Z,17.23
2018-06-03T11:48:28.855Z,15.38
2018-06-03T11:50:56.936Z,14.80
2018-06-03T11:53:25.039Z,18.00
2018-06-03T11:55:52.902Z,16.77
2018-06-03T11:58:36.147Z,16.65
2018-06-03T12:01:04.309Z,14.25
2018-06-03T12:03:32.375Z,16.27
2018-06-03T12:06:00.495Z,14.20
2018-06-03T12:08:28.921Z,14.35
2018-06-03T12:10:57.033Z,13.85
2018-06-03T12:13:25.129Z,10.75
2018-06-03T12:15:53.244Z,13.45
2018-06-03T12:18:21.351Z,11.05
2018-06-03T12:20:49.506Z,12.88
2018-06-03T12:23:17.701Z,12.88
2018-06-03T12:25:45.803Z,11.20
2018-06-03T12:28:13.907Z,14.87
2018-06-03T12:30:42.205Z,10.60
2018-06-03T12:33:10.368Z,11.18
2018-06-03T12:35:38.445Z,10.32
2018-06-03T12:38:06.555Z,13.22
2018-06-03T12:40:34.631Z,12.78
2018-06-03T12:43:02.787Z,11.55
2018-06-03T12:45:30.844Z,10.85
2018-06-03T12:47:58.972Z,9.68
2018-06-03T12:50:27.119Z,10.93
2018-06-03T12:52:55.216Z,8.08
2018-06-03T12:55:23.275Z,8.63
2018-06-03T12:57:51.336Z,11.25
2018-06-03T13:00:19.518Z,11.20
2018-06-03T13:02:47.607Z,12.10
2018-06-03T13:05:15.805Z,10.08
2018-06-03T13:07:43.710Z,10.05
2018-06-03T13:10:14.401Z,8.80
2018-06-03T13:12:42.590Z,10.88
2018-06-03T13:15:10.693Z,9.33
2018-06-03T13:17:39.172Z,9.25
2018-06-03T13:20:07.555Z,9.05
2018-06-03T13:22:35.637Z,7.53
2018-06-03T13:25:03.736Z,8.60
2018-06-03T13:27:31.843Z,9.28
2018-06-03T13:29:59.942Z,7.22
2018-06-03T13:32:28.123Z,7.37
2018-06-03T13:34:56.192Z,6.15
2018-06-03T13:37:24.293Z,6.95
2018-06-03T13:39:52.382Z,6.78
2018-06-03T13:42:20.488Z,6.95
2018-06-03T13:44:48.595Z,6.12
2018-06-03T13:47:16.724Z,7.30
2018-06-03T13:49:44.825Z,6.65
2018-06-03T13:52:12.912Z,7.95
2018-06-03T13:54:40.990Z,9.73
2018-06-03T13:57:09.076Z,7.12
2018-06-03T13:59:37.161Z,7.83
2018-06-03T14:02:05.282Z,10.20
2018-06-03T14:04:33.459Z,9.78
2018-06-03T14:07:01.549Z,9.20
2018-06-03T14:09:40.236Z,8.93
2018-06-03T14:12:08.875Z,9.03
2018-06-03T14:14:37.010Z,9.40
2018-06-03T14:17:05.148Z,8.83
2018-06-03T14:19:33.258Z,10.68
2018-06-03T14:22:01.353Z,8.68
2018-06-03T14:24:29.927Z,11.97
2018-06-03T14:26:58.005Z,7.72
2018-06-03T14:29:49.825Z,8.50
2018-06-03T14:32:28.014Z,8.83
2018-06-03T14:49:21.195Z,10.70
2018-06-03T14:51:49.278Z,7.87
2018-06-03T14:54:17.405Z,8.58
2018-06-03T14:56:45.498Z,8.53
2018-06-03T14:59:13.507Z,10.60
2018-06-03T15:01:41.626Z,8.38
2018-06-03T15:04:09.683Z,7.58
2018-06-03T15:06:37.752Z,6.95
2018-06-03T15:09:07.511Z,7.35
2018-06-03T15:11:37.012Z,7.15
2018-06-03T15:14:05.008Z,6.78
2018-06-03T15:16:33.404Z,9.00
2018-06-03T15:19:01.527Z,9.05
2018-06-03T15:21:29.410Z,7.75
2018-06-03T15:23:57.476Z,8.20
2018-06-03T15:26:25.605Z,12.75
2018-06-03T15:28:53.722Z,7.37
2018-06-03T15:31:21.799Z,8.93
2018-06-03T15:33:49.993Z,7.47
2018-06-03T15:36:18.040Z,6.90
2018-06-03T15:38:46.210Z,6.78
2018-06-03T15:41:29.012Z,7.90
2018-06-03T15:43:57.175Z,6.53
2018-06-03T15:46:25.240Z,7.95
2018-06-03T15:48:53.322Z,7.22
2018-06-03T15:51:22.008Z,8.35
2018-06-03T15:53:50.101Z,7.70
2018-06-03T15:56:18.186Z,10.60
2018-06-03T15:58:46.303Z,12.47
2018-06-03T16:01:14.368Z,8.65
2018-06-03T16:03:42.461Z,7.17
2018-06-03T16:06:10.606Z,8.95
2018-06-03T16:08:38.711Z,8.73
2018-06-03T16:11:06.865Z,8.40
2018-06-03T16:13:34.974Z,7.55
2018-06-03T16:16:03.011Z,8.95
2018-06-03T16:18:31.159Z,8.55
2018-06-03T16:20:59.325Z,7.85
2018-06-03T16:23:27.428Z,8.48
2018-06-03T16:25:55.498Z,7.97
2018-06-03T16:28:23.737Z,10.70
2018-06-03T16:30:51.801Z,11.70
2018-06-03T16:33:20.800Z,11.57
2018-06-03T16:35:49.709Z,12.82
2018-06-03T16:38:17.761Z,10.50
2018-06-03T16:40:45.923Z,12.33
2018-06-03T16:43:14.112Z,13.98
2018-06-03T16:45:42.167Z,16.23
2018-06-03T16:48:10.272Z,19.02
2018-06-03T16:50:38.378Z,20.20
2018-06-03T16:53:06.460Z,19.70
2018-06-03T16:55:34.598Z,18.87
2018-06-03T16:58:02.731Z,21.15
2018-06-03T17:00:30.879Z,21.10
2018-06-03T17:02:58.963Z,19.10
2018-06-03T17:05:27.047Z,17.92
2018-06-03T17:07:55.126Z,20.75
2018-06-03T17:10:23.221Z,19.20
2018-06-03T17:12:51.299Z,19.07
2018-06-03T17:15:19.375Z,21.73
2018-06-03T17:17:47.455Z,18.10
2018-06-03T17:20:15.589Z,21.77
2018-06-03T17:22:43.664Z,17.50
2018-06-03T17:25:11.752Z,19.65
2018-06-03T17:27:39.896Z,17.82
2018-06-03T17:30:08.070Z,21.17
2018-06-03T17:32:36.161Z,20.85
2018-06-03T17:35:04.271Z,20.52
2018-06-03T17:37:32.492Z,18.67
2018-06-03T17:40:00.558Z,20.40
2018-06-03T17:42:28.724Z,19.77
2018-06-03T17:44:56.803Z,22.48
2018-06-03T17:47:24.902Z,19.52
2018-06-03T17:49:53.396Z,19.12
2018-06-03T17:52:22.258Z,22.48
2018-06-03T17:54:50.403Z,23.20
2018-06-03T17:57:18.463Z,21.75
2018-06-03T17:59:46.470Z,25.50
2018-06-03T18:02:14.565Z,20.75
2018-06-03T18:04:42.709Z,24.80
2018-06-03T18:07:10.787Z,23.20
2018-06-03T18:09:38.867Z,20.40
2018-06-03T18:12:07.132Z,21.68
2018-06-03T18:14:35.200Z,25.30
2018-06-03T18:17:03.381Z,20.55
2018-06-03T18:19:31.551Z,21.90
2018-06-03T18:21:59.635Z,23.92
2018-06-03T18:24:27.700Z,21.27
2018-06-03T18:26:56.423Z,18.98
2018-06-03T18:29:24.550Z,21.45
2018-06-03T18:31:52.633Z,24.00
2018-06-03T18:34:20.715Z,23.75
2018-06-03T18:39:23.768Z,23.18
2018-06-03T18:41:51.851Z,28.23
2018-06-03T18:44:19.959Z,29.27
2018-06-03T18:46:48.037Z,26.57
2018-06-03T18:49:16.136Z,28.05
2018-06-03T18:51:44.487Z,27.60
2018-06-03T18:54:12.744Z,28.60
2018-06-03T18:56:40.870Z,27.40
2018-06-03T18:59:09.107Z,28.17
2018-06-03T19:01:37.469Z,30.75
2018-06-03T19:04:05.905Z,29.25
2018-06-03T19:06:33.969Z,31.35
2018-06-03T19:09:02.063Z,28.60
2018-06-03T19:11:30.174Z,27.32
2018-06-03T19:13:58.368Z,31.02
2018-06-03T19:16:26.334Z,32.50
2018-06-03T19:18:54.491Z,30.85
2018-06-03T19:21:22.631Z,33.15
2018-06-03T19:23:50.727Z,35.38
2018-06-03T19:26:18.830Z,33.02
2018-06-03T19:28:46.943Z,37.93
2018-06-03T19:31:15.089Z,35.58
2018-06-03T19:33:43.204Z,37.60
2018-06-03T19:36:11.330Z,30.45
2018-06-03T19:38:39.465Z,35.08
2018-06-03T19:41:07.607Z,33.88
2018-06-03T19:43:36.024Z,36.98
2018-06-03T19:46:04.194Z,44.38
2018-06-03T19:48:32.284Z,41.80
2018-06-03T19:51:00.487Z,47.80
2018-06-03T19:53:28.678Z,46.02
2018-06-03T19:55:56.889Z,44.35
2018-06-03T19:58:24.995Z,43.40
2018-06-03T20:00:53.193Z,45.10
2018-06-03T20:03:21.267Z,40.73
2018-06-03T20:05:50.406Z,46.68
2018-06-03T20:08:18.508Z,48.05
2018-06-03T20:10:46.652Z,47.43
2018-06-03T20:13:14.742Z,50.40
2018-06-03T20:15:42.839Z,44.13
2018-06-03T20:18:10.931Z,45.90
2018-06-03T20:20:39.046Z,48.55
2018-06-03T20:23:07.139Z,50.10
2018-06-03T20:25:35.250Z,43.45
2018-06-03T20:28:03.461Z,43.10
2018-06-03T20:30:31.659Z,44.80
2018-06-03T20:32:59.931Z,42.58
2018-06-03T20:35:28.139Z,43.13
2018-06-03T20:37:56.211Z,44.25
2018-06-03T20:40:24.324Z,42.83
2018-06-03T20:42:52.383Z,40.67
2018-06-03T20:45:20.467Z,41.33
2018-06-03T20:47:48.551Z,44.90
2018-06-03T20:50:16.634Z,42.03
2018-06-03T20:52:44.716Z,42.10
2018-06-03T20:55:12.822Z,38.20
2018-06-03T20:57:40.886Z,43.20
2018-06-03T21:00:08.967Z,43.92
2018-06-03T21:02:37.043Z,42.35
2018-06-03T21:05:05.178Z,42.55
2018-06-03T21:07:33.247Z,43.47
2018-06-03T21:10:01.376Z,43.93
2018-06-03T21:12:29.478Z,44.18
2018-06-03T21:14:57.556Z,38.28
2018-06-03T21:17:25.712Z,41.13
2018-06-03T21:19:53.784Z,41.23
2018-06-03T21:22:21.902Z,41.93
2018-06-03T21:24:49.974Z,46.07
2018-06-03T21:27:18.055Z,42.97
2018-06-03T21:29:46.143Z,43.13
2018-06-03T21:32:14.239Z,42.63
2018-06-03T21:34:42.321Z,39.63
2018-06-03T21:37:10.377Z,40.10
2018-06-03T21:39:38.493Z,43.90
2018-06-03T21:42:06.607Z,45.57
2018-06-03T21:44:34.691Z,45.50
2018-06-03T21:47:02.781Z,45.43
2018-06-03T21:49:32.241Z,48.47
2018-06-03T21:52:00.322Z,44.67
2018-06-03T21:54:29.073Z,44.33
2018-06-03T21:56:57.145Z,47.07
2018-06-03T21:59:25.264Z,52.97
2018-06-03T22:01:53.379Z,47.67
2018-06-03T22:04:21.531Z,49.53
2018-06-03T22:06:49.654Z,51.95
2018-06-03T22:09:17.768Z,49.67
2018-06-03T22:11:45.849Z,48.20
2018-06-03T22:14:13.920Z,47.00
2018-06-03T22:16:41.979Z,46.00
2018-06-03T22:19:10.094Z,47.00
2018-06-03T22:21:38.182Z,43.37
2018-06-03T22:24:06.276Z,43.97
2018-06-03T22:26:34.485Z,42.93
2018-06-03T22:29:02.563Z,39.83
2018-06-03T22:31:30.747Z,45.10
2018-06-03T22:33:58.864Z,41.30
2018-06-03T22:36:27.228Z,37.87
2018-06-03T22:38:55.293Z,39.43
2018-06-03T22:41:23.524Z,39.10
2018-06-03T22:43:51.600Z,41.50
2018-06-03T22:46:19.692Z,38.43
2018-06-03T22:48:47.794Z,38.43
2018-06-03T22:51:15.869Z,38.33
2018-06-03T22:53:43.989Z,35.50
2018-06-03T22:56:12.071Z,41.10
2018-06-03T22:58:40.343Z,42.70
2018-06-03T23:01:08.516Z,34.90
2018-06-03T23:03:36.596Z,36.67
2018-06-03T23:06:04.706Z,36.00
2018-06-03T23:08:32.779Z,37.20
2018-06-03T23:11:00.902Z,38.47
2018-06-03T23:13:28.982Z,37.50
2018-06-03T23:15:57.088Z,40.17
2018-06-03T23:18:25.163Z,40.10
2018-06-03T23:20:53.290Z,34.90
2018-06-03T23:23:21.391Z,35.73
2018-06-03T23:25:49.485Z,38.23
2018-06-03T23:28:17.555Z,38.87
2018-06-03T23:30:45.633Z,39.77
2018-06-03T23:33:13.722Z,38.43
2018-06-03T23:35:41.840Z,43.27
2018-06-03T23:38:09.934Z,38.40
2018-06-03T23:40:38.019Z,39.15
2018-06-03T23:43:06.131Z,39.53
2018-06-03T23:45:34.263Z,37.33
2018-06-03T23:48:02.367Z,36.00
2018-06-03T23:50:30.489Z,37.50
2018-06-03T23:52:58.638Z,36.83
2018-06-03T23:55:26.695Z,36.90
2018-06-03T23:57:54.846Z,45.43
